createdAt,value
2019-03-24T00:04:39.224Z,81.86
2019-03-24T00:09:41.678Z,82.55
2019-03-24T00:14:44.085Z,82.84
2019-03-24T00:19:46.436Z,83.26
2019-03-24T00:24:48.847Z,83.31
2019-03-24T00:29:55.165Z,83.74
2019-03-24T00:34:57.557Z,83.76
2019-03-24T00:40:00.006Z,83.91
2019-03-24T00:45:03.328Z,84.54
2019-03-24T00:50:06.318Z,84.41
2019-03-24T00:55:09.004Z,83.85
2019-03-24T01:00:12.553Z,84.00
2019-03-24T01:05:15.009Z,84.36
2019-03-24T01:10:17.397Z,84.70
2019-03-24T01:15:19.784Z,84.54
2019-03-24T01:20:22.343Z,84.82
2019-03-24T01:25:24.700Z,84.50
2019-03-24T01:30:27.095Z,83.68
2019-03-24T01:35:29.470Z,83.48
2019-03-24T01:40:32.097Z,83.92
2019-03-24T01:45:34.558Z,84.42
2019-03-24T01:50:37.002Z,85.31
2019-03-24T01:55:39.607Z,84.81
2019-03-24T02:00:42.210Z,84.57
2019-03-24T02:05:44.668Z,82.05
2019-03-24T02:16:10.663Z,81.44
2019-03-24T02:21:13.009Z,80.95
2019-03-24T02:26:15.397Z,81.08
2019-03-24T02:31:17.768Z,80.77
2019-03-24T02:36:20.319Z,81.20
2019-03-24T02:41:22.679Z,80.77
2019-03-24T02:46:25.414Z,81.20
2019-03-24T02:51:27.810Z,81.00
2019-03-24T02:56:30.333Z,80.47
2019-03-24T03:01:32.706Z,80.75
2019-03-24T03:06:35.078Z,80.51
2019-03-24T03:11:37.438Z,80.45
2019-03-24T03:16:39.806Z,80.07
2019-03-24T03:21:42.181Z,79.74
2019-03-24T03:26:44.541Z,79.79
2019-03-24T03:31:46.909Z,80.12
2019-03-24T03:36:49.284Z,80.42
2019-03-24T03:41:51.764Z,80.87
2019-03-24T03:46:54.312Z,80.85
2019-03-24T03:51:56.773Z,80.25
2019-03-24T03:56:59.139Z,80.85
2019-03-24T04:02:01.551Z,80.75
2019-03-24T04:07:03.947Z,80.95
2019-03-24T04:12:06.424Z,80.94
2019-03-24T04:17:08.896Z,81.43
2019-03-24T04:22:11.253Z,81.84
2019-03-24T04:27:13.671Z,81.96
2019-03-24T04:32:17.033Z,81.77
2019-03-24T04:37:19.395Z,81.79
2019-03-24T04:42:22.149Z,81.53
2019-03-24T04:47:24.521Z,81.92
2019-03-24T04:52:26.891Z,81.91
2019-03-24T04:57:29.687Z,82.52
2019-03-24T05:02:32.204Z,82.58
2019-03-24T05:07:35.254Z,83.14
2019-03-24T05:12:37.650Z,83.48
2019-03-24T05:17:41.207Z,83.64
2019-03-24T05:22:43.594Z,84.07
2019-03-24T05:27:46.007Z,83.99
2019-03-24T05:32:48.359Z,84.04
2019-03-24T05:37:50.725Z,83.55
2019-03-24T05:42:53.147Z,83.71
2019-03-24T05:47:55.699Z,83.65
2019-03-24T05:52:58.868Z,83.73
2019-03-24T05:58:01.776Z,83.72
2019-03-24T06:03:04.139Z,83.66
2019-03-24T06:08:06.500Z,83.70
2019-03-24T06:13:08.890Z,83.71
2019-03-24T06:18:11.548Z,83.06
2019-03-24T06:23:13.915Z,83.01
2019-03-24T06:28:16.349Z,82.43
2019-03-24T06:33:18.720Z,82.04
2019-03-24T06:38:27.060Z,82.59
2019-03-24T06:43:29.461Z,82.43
2019-03-24T06:48:31.804Z,82.42
2019-03-24T06:53:34.164Z,81.62
2019-03-24T06:58:36.880Z,81.05
2019-03-24T07:03:39.240Z,81.77
2019-03-24T07:08:41.594Z,81.43
2019-03-24T07:13:43.967Z,80.49
2019-03-24T07:18:46.346Z,80.38
2019-03-24T07:23:48.795Z,81.29
2019-03-24T07:28:51.383Z,80.65
2019-03-24T07:33:53.864Z,80.21
2019-03-24T07:38:56.299Z,81.15
2019-03-24T07:43:58.780Z,81.47
2019-03-24T07:49:01.251Z,80.71
2019-03-24T07:54:03.810Z,80.06
2019-03-24T07:59:06.324Z,79.49
2019-03-24T08:04:08.675Z,79.32
2019-03-24T08:09:11.125Z,79.13
2019-03-24T08:14:13.991Z,79.96
2019-03-24T08:19:16.354Z,79.37
2019-03-24T08:24:18.702Z,80.13
2019-03-24T08:29:24.453Z,80.22
2019-03-24T08:34:26.795Z,79.06
2019-03-24T08:39:29.183Z,79.64
2019-03-24T08:44:31.914Z,78.99
2019-03-24T08:49:34.264Z,78.96
2019-03-24T08:54:36.620Z,79.72
2019-03-24T08:59:39.000Z,80.23
2019-03-24T09:04:41.378Z,79.46
2019-03-24T09:09:43.900Z,79.32
2019-03-24T09:14:46.283Z,80.36
2019-03-24T09:19:48.648Z,81.39
2019-03-24T09:24:51.017Z,81.59
2019-03-24T09:29:53.407Z,81.91
2019-03-24T09:34:55.857Z,82.56
2019-03-24T09:39:58.295Z,82.91
2019-03-24T09:45:00.722Z,83.21
2019-03-24T09:50:04.067Z,83.12
2019-03-24T09:55:06.568Z,82.76
2019-03-24T10:00:09.216Z,81.19
2019-03-24T10:05:12.240Z,79.25
2019-03-24T10:10:14.795Z,79.18
2019-03-24T10:15:17.187Z,80.06
2019-03-24T10:20:19.543Z,79.15
2019-03-24T10:25:21.915Z,78.61
2019-03-24T10:30:24.914Z,76.73
2019-03-24T10:35:27.268Z,76.00
2019-03-24T10:40:29.661Z,76.26
2019-03-24T10:45:32.092Z,77.10
2019-03-24T10:50:34.444Z,76.38
2019-03-24T10:55:36.830Z,76.16
2019-03-24T11:00:44.316Z,76.98
2019-03-24T11:05:46.686Z,76.62
2019-03-24T11:10:49.380Z,77.41
2019-03-24T11:15:51.748Z,76.08
2019-03-24T11:20:54.149Z,76.92
2019-03-24T11:25:56.620Z,76.97
2019-03-24T11:30:59.012Z,77.00
2019-03-24T11:36:01.364Z,77.11
2019-03-24T11:41:03.977Z,77.35
2019-03-24T11:46:06.364Z,77.02
2019-03-24T11:51:08.724Z,76.10
2019-03-24T11:56:11.138Z,75.72
2019-03-24T12:01:13.588Z,73.45
2019-03-24T12:06:15.960Z,73.81
2019-03-24T12:11:19.452Z,74.72
2019-03-24T12:16:22.118Z,74.35
2019-03-24T12:21:24.475Z,73.54
2019-03-24T12:26:26.863Z,74.01
2019-03-24T12:31:32.200Z,73.92
2019-03-24T12:36:34.669Z,73.53
2019-03-24T12:41:37.087Z,73.56
2019-03-24T12:46:39.518Z,73.95
2019-03-24T12:51:43.425Z,73.92
2019-03-24T12:56:45.813Z,73.68
2019-03-24T13:01:48.257Z,73.25
2019-03-24T13:06:50.623Z,73.25
2019-03-24T13:11:55.723Z,72.55
2019-03-24T13:16:58.181Z,71.93
2019-03-24T13:22:03.685Z,73.00
2019-03-24T13:27:06.167Z,72.94
2019-03-24T13:32:11.500Z,71.73
2019-03-24T13:37:13.884Z,70.80
2019-03-24T13:42:16.304Z,67.87
2019-03-24T13:47:21.687Z,67.50
2019-03-24T13:52:24.039Z,66.43
2019-03-24T13:57:29.397Z,66.10
2019-03-24T14:02:34.443Z,63.26
2019-03-24T14:07:36.795Z,61.87
2019-03-24T14:12:39.235Z,60.95
2019-03-24T14:17:42.702Z,56.45
2019-03-24T14:22:48.367Z,47.65
2019-03-24T14:27:50.876Z,43.03
2019-03-24T14:32:56.298Z,41.48
2019-03-24T14:38:01.444Z,40.78
2019-03-24T14:43:04.280Z,38.21
2019-03-24T14:48:06.699Z,41.64
2019-03-24T14:53:09.064Z,44.71
2019-03-24T14:58:12.856Z,46.83
2019-03-24T15:03:15.338Z,51.01
2019-03-24T15:08:17.731Z,46.83
2019-03-24T15:13:20.173Z,39.55
2019-03-24T15:18:22.659Z,35.98
2019-03-24T15:23:25.113Z,34.04
2019-03-24T15:28:30.477Z,37.84
2019-03-24T15:33:32.907Z,39.36
2019-03-24T15:38:38.180Z,40.17
2019-03-24T15:43:41.227Z,39.65
2019-03-24T15:48:50.214Z,38.41
2019-03-24T15:53:52.616Z,37.48
2019-03-24T15:58:55.091Z,36.75
2019-03-24T16:04:00.332Z,37.45
2019-03-24T16:09:05.848Z,42.85
2019-03-24T16:14:08.229Z,43.29
2019-03-24T16:19:10.728Z,45.07
2019-03-24T16:24:13.778Z,47.98
2019-03-24T16:29:16.462Z,51.10
2019-03-24T16:34:18.897Z,52.99
2019-03-24T16:39:21.274Z,56.56
2019-03-24T16:44:23.679Z,57.40
2019-03-24T16:49:26.047Z,57.45
2019-03-24T16:54:28.396Z,57.80
2019-03-24T16:59:30.941Z,59.04
2019-03-24T17:04:33.498Z,58.84
2019-03-24T17:09:35.831Z,59.34
2019-03-24T17:14:38.432Z,59.97
2019-03-24T17:19:40.823Z,61.67
2019-03-24T17:24:43.188Z,62.65
2019-03-24T17:29:45.743Z,63.02
2019-03-24T17:34:48.479Z,63.20
2019-03-24T17:39:51.004Z,63.66
2019-03-24T17:44:53.498Z,64.50
2019-03-24T17:49:55.882Z,65.08
2019-03-24T17:54:58.297Z,66.09
2019-03-24T18:00:00.747Z,66.89
2019-03-24T18:05:04.829Z,67.92
2019-03-24T18:10:08.540Z,68.72
2019-03-24T18:15:11.531Z,69.71
2019-03-24T18:20:19.547Z,69.20
2019-03-24T18:25:21.935Z,69.59
2019-03-24T18:30:26.549Z,70.28
2019-03-24T18:35:29.115Z,70.15
2019-03-24T18:40:31.594Z,70.10
2019-03-24T18:45:33.992Z,70.93
2019-03-24T18:50:37.479Z,71.07
2019-03-24T18:55:42.777Z,69.96
2019-03-24T19:00:45.351Z,67.97
2019-03-24T19:05:48.940Z,63.56
2019-03-24T19:10:51.518Z,61.65
2019-03-24T19:15:54.348Z,59.59
2019-03-24T19:20:56.724Z,58.13
2019-03-24T19:25:59.097Z,57.73
2019-03-24T19:31:02.009Z,54.03
2019-03-24T19:36:04.580Z,52.96
2019-03-24T19:41:06.937Z,51.66
2019-03-24T19:46:09.595Z,51.36
2019-03-24T19:51:11.984Z,53.64
2019-03-24T19:56:15.643Z,52.33
2019-03-24T20:01:19.432Z,53.35
2019-03-24T20:06:21.912Z,54.27
2019-03-24T20:11:24.292Z,54.77
2019-03-24T20:16:26.731Z,56.19
2019-03-24T20:21:29.228Z,56.83
2019-03-24T20:26:34.715Z,56.21
2019-03-24T20:31:37.243Z,54.48
2019-03-24T20:36:39.603Z,54.77
2019-03-24T20:41:43.069Z,54.81
2019-03-24T20:46:45.885Z,55.05
2019-03-24T20:51:48.264Z,54.95
2019-03-24T20:56:50.616Z,54.84
2019-03-24T21:01:56.243Z,54.83
2019-03-24T21:06:58.722Z,55.40
2019-03-24T21:12:01.284Z,55.71
2019-03-24T21:17:06.752Z,55.14
2019-03-24T21:22:09.211Z,54.98
2019-03-24T21:27:14.868Z,54.89
2019-03-24T21:32:17.275Z,55.60
2019-03-24T21:37:19.655Z,56.08
2019-03-24T21:42:22.072Z,56.25
2019-03-24T21:47:24.499Z,56.49
2019-03-24T21:52:26.856Z,56.41
2019-03-24T21:57:29.222Z,57.25
2019-03-24T22:02:31.607Z,55.94
2019-03-24T22:07:33.959Z,55.93
2019-03-24T22:12:36.376Z,57.01
2019-03-24T22:17:38.843Z,58.11
2019-03-24T22:22:41.237Z,58.63
2019-03-24T22:27:43.603Z,59.05
2019-03-24T22:32:46.271Z,59.83
2019-03-24T22:37:48.683Z,60.61
2019-03-24T22:42:51.093Z,60.41
2019-03-24T22:47:53.487Z,59.88
2019-03-24T22:52:57.068Z,59.69
2019-03-24T22:57:59.449Z,60.46
2019-03-24T23:03:01.842Z,60.48
2019-03-24T23:08:04.216Z,60.23
2019-03-24T23:13:06.576Z,60.17
2019-03-24T23:18:09.935Z,60.10
2019-03-24T23:23:12.452Z,60.91
2019-03-24T23:28:15.335Z,59.83
2019-03-24T23:33:18.611Z,59.00
2019-03-24T23:38:20.989Z,59.28
2019-03-24T23:43:23.396Z,58.24
2019-03-24T23:48:25.791Z,57.59
2019-03-24T23:53:28.364Z,59.74
2019-03-24T23:58:40.243Z,61.42
